sensor_id;sensor_type;location;lat;lon;timestamp;P1;durP1;ratioP1;P2;durP2;ratioP2
65328;SDS011;51941;52.210;5.158;2023-06-26T00:00:03;4.93;;;4.50;;
65328;SDS011;51941;52.210;5.158;2023-06-26T00:02:31;4.63;;;4.22;;
65328;SDS011;51941;52.210;5.158;2023-06-26T00:04:58;4.70;;;4.15;;
65328;SDS011;51941;52.210;5.158;2023-06-26T00:07:27;6.32;;;5.07;;
65328;SDS011;51941;52.210;5.158;2023-06-26T00:09:55;5.15;;;4.50;;
65328;SDS011;51941;52.210;5.158;2023-06-26T00:12:21;7.00;;;4.93;;
65328;SDS011;51941;52.210;5.158;2023-06-26T00:14:48;6.15;;;4.70;;
65328;SDS011;51941;52.210;5.158;2023-06-26T00:17:16;5.50;;;5.00;;
65328;SDS011;51941;52.210;5.158;2023-06-26T00:19:43;8.23;;;5.25;;
65328;SDS011;51941;52.210;5.158;2023-06-26T00:22:10;7.18;;;5.00;;
65328;SDS011;51941;52.210;5.158;2023-06-26T00:24:37;6.95;;;4.20;;
65328;SDS011;51941;52.210;5.158;2023-06-26T00:27:04;4.88;;;4.47;;
65328;SDS011;51941;52.210;5.158;2023-06-26T00:29:31;5.65;;;4.40;;
65328;SDS011;51941;52.210;5.158;2023-06-26T00:31:58;5.13;;;4.40;;
65328;SDS011;51941;52.210;5.158;2023-06-26T00:34:26;4.38;;;3.97;;
65328;SDS011;51941;52.210;5.158;2023-06-26T00:36:53;6.47;;;4.72;;
65328;SDS011;51941;52.210;5.158;2023-06-26T00:39:20;5.13;;;4.45;;
65328;SDS011;51941;52.210;5.158;2023-06-26T00:41:46;4.80;;;4.40;;
65328;SDS011;51941;52.210;5.158;2023-06-26T00:44:14;5.72;;;4.70;;
65328;SDS011;51941;52.210;5.158;2023-06-26T00:46:40;4.93;;;4.43;;
65328;SDS011;51941;52.210;5.158;2023-06-26T00:49:10;5.78;;;4.95;;
65328;SDS011;51941;52.210;5.158;2023-06-26T00:51:38;5.22;;;4.68;;
65328;SDS011;51941;52.210;5.158;2023-06-26T00:54:05;6.00;;;4.85;;
65328;SDS011;51941;52.210;5.158;2023-06-26T00:56:32;5.68;;;4.80;;
65328;SDS011;51941;52.210;5.158;2023-06-26T00:59:00;5.68;;;5.07;;
65328;SDS011;51941;52.210;5.158;2023-06-26T01:01:27;7.20;;;4.90;;
65328;SDS011;51941;52.210;5.158;2023-06-26T01:03:54;5.32;;;4.82;;
65328;SDS011;51941;52.210;5.158;2023-06-26T01:06:24;8.75;;;5.32;;
65328;SDS011;51941;52.210;5.158;2023-06-26T01:08:57;6.15;;;4.95;;
65328;SDS011;51941;52.210;5.158;2023-06-26T01:13:50;5.70;;;4.85;;
65328;SDS011;51941;52.210;5.158;2023-06-26T01:16:19;7.47;;;5.22;;
65328;SDS011;51941;52.210;5.158;2023-06-26T01:18:46;6.38;;;4.75;;
65328;SDS011;51941;52.210;5.158;2023-06-26T01:21:14;8.45;;;4.85;;
65328;SDS011;51941;52.210;5.158;2023-06-26T01:23:46;5.13;;;4.63;;
65328;SDS011;51941;52.210;5.158;2023-06-26T01:26:25;7.20;;;5.38;;
65328;SDS011;51941;52.210;5.158;2023-06-26T01:28:55;10.10;;;5.00;;
65328;SDS011;51941;52.210;5.158;2023-06-26T01:33:53;6.82;;;4.65;;
65328;SDS011;51941;52.210;5.158;2023-06-26T01:36:21;7.38;;;4.65;;
65328;SDS011;51941;52.210;5.158;2023-06-26T01:38:48;7.00;;;4.38;;
65328;SDS011;51941;52.210;5.158;2023-06-26T01:41:15;8.18;;;4.25;;
65328;SDS011;51941;52.210;5.158;2023-06-26T01:43:52;5.53;;;3.90;;
65328;SDS011;51941;52.210;5.158;2023-06-26T01:46:33;7.90;;;4.60;;
65328;SDS011;51941;52.210;5.158;2023-06-26T01:49:07;6.60;;;4.13;;
65328;SDS011;51941;52.210;5.158;2023-06-26T01:51:41;6.57;;;4.20;;
65328;SDS011;51941;52.210;5.158;2023-06-26T01:54:14;6.57;;;4.25;;
65328;SDS011;51941;52.210;5.158;2023-06-26T01:56:46;9.52;;;4.43;;
65328;SDS011;51941;52.210;5.158;2023-06-26T01:59:18;5.65;;;4.07;;
65328;SDS011;51941;52.210;5.158;2023-06-26T02:01:47;7.80;;;3.80;;
65328;SDS011;51941;52.210;5.158;2023-06-26T02:04:14;5.85;;;3.83;;
65328;SDS011;51941;52.210;5.158;2023-06-26T02:06:40;7.07;;;4.50;;
65328;SDS011;51941;52.210;5.158;2023-06-26T02:09:07;6.72;;;4.03;;
65328;SDS011;51941;52.210;5.158;2023-06-26T02:11:34;5.55;;;4.18;;
65328;SDS011;51941;52.210;5.158;2023-06-26T02:14:01;7.78;;;4.03;;
65328;SDS011;51941;52.210;5.158;2023-06-26T02:16:29;8.52;;;3.78;;
65328;SDS011;51941;52.210;5.158;2023-06-26T02:18:56;8.48;;;4.40;;
65328;SDS011;51941;52.210;5.158;2023-06-26T02:21:23;10.57;;;4.65;;
65328;SDS011;51941;52.210;5.158;2023-06-26T02:23:50;6.80;;;4.00;;
65328;SDS011;51941;52.210;5.158;2023-06-26T02:26:16;7.63;;;3.83;;
65328;SDS011;51941;52.210;5.158;2023-06-26T02:28:43;7.05;;;4.25;;
65328;SDS011;51941;52.210;5.158;2023-06-26T02:31:11;7.60;;;3.67;;
65328;SDS011;51941;52.210;5.158;2023-06-26T02:33:39;9.25;;;4.35;;
65328;SDS011;51941;52.210;5.158;2023-06-26T02:36:07;8.27;;;3.53;;
65328;SDS011;51941;52.210;5.158;2023-06-26T02:38:34;10.45;;;4.38;;
65328;SDS011;51941;52.210;5.158;2023-06-26T02:41:02;9.13;;;4.60;;
65328;SDS011;51941;52.210;5.158;2023-06-26T02:43:29;10.70;;;4.53;;
65328;SDS011;51941;52.210;5.158;2023-06-26T02:45:55;10.02;;;4.38;;
65328;SDS011;51941;52.210;5.158;2023-06-26T02:48:22;11.13;;;4.28;;
65328;SDS011;51941;52.210;5.158;2023-06-26T02:50:50;9.40;;;4.10;;
65328;SDS011;51941;52.210;5.158;2023-06-26T02:53:21;13.07;;;4.88;;
65328;SDS011;51941;52.210;5.158;2023-06-26T02:55:48;14.27;;;4.85;;
65328;SDS011;51941;52.210;5.158;2023-06-26T02:58:16;11.90;;;4.90;;
65328;SDS011;51941;52.210;5.158;2023-06-26T03:00:43;11.10;;;4.72;;
65328;SDS011;51941;52.210;5.158;2023-06-26T03:03:14;11.02;;;4.40;;
65328;SDS011;51941;52.210;5.158;2023-06-26T03:05:41;11.45;;;4.28;;
65328;SDS011;51941;52.210;5.158;2023-06-26T03:08:09;11.60;;;4.45;;
65328;SDS011;51941;52.210;5.158;2023-06-26T03:10:37;13.30;;;4.70;;
65328;SDS011;51941;52.210;5.158;2023-06-26T03:13:04;12.13;;;4.80;;
65328;SDS011;51941;52.210;5.158;2023-06-26T03:15:31;13.90;;;4.63;;
65328;SDS011;51941;52.210;5.158;2023-06-26T03:17:58;16.00;;;5.30;;
65328;SDS011;51941;52.210;5.158;2023-06-26T03:22:56;14.95;;;5.15;;
65328;SDS011;51941;52.210;5.158;2023-06-26T03:25:24;14.10;;;4.85;;
65328;SDS011;51941;52.210;5.158;2023-06-26T03:28:04;15.07;;;5.15;;
65328;SDS011;51941;52.210;5.158;2023-06-26T03:30:33;17.45;;;5.20;;
65328;SDS011;51941;52.210;5.158;2023-06-26T03:32:59;17.52;;;5.40;;
65328;SDS011;51941;52.210;5.158;2023-06-26T03:35:26;14.73;;;4.85;;
65328;SDS011;51941;52.210;5.158;2023-06-26T03:37:53;17.67;;;5.38;;
65328;SDS011;51941;52.210;5.158;2023-06-26T03:40:20;16.10;;;5.07;;
65328;SDS011;51941;52.210;5.158;2023-06-26T03:42:49;17.65;;;5.22;;
65328;SDS011;51941;52.210;5.158;2023-06-26T03:45:16;15.33;;;5.67;;
65328;SDS011;51941;52.210;5.158;2023-06-26T03:47:44;12.98;;;4.70;;
65328;SDS011;51941;52.210;5.158;2023-06-26T03:50:13;17.77;;;5.00;;
65328;SDS011;51941;52.210;5.158;2023-06-26T03:52:40;14.30;;;4.93;;
65328;SDS011;51941;52.210;5.158;2023-06-26T03:55:07;13.77;;;5.28;;
65328;SDS011;51941;52.210;5.158;2023-06-26T03:57:34;16.65;;;5.00;;
65328;SDS011;51941;52.210;5.158;2023-06-26T04:00:03;16.98;;;5.00;;
65328;SDS011;51941;52.210;5.158;2023-06-26T04:02:40;12.25;;;4.65;;
65328;SDS011;51941;52.210;5.158;2023-06-26T04:05:07;15.38;;;4.47;;
65328;SDS011;51941;52.210;5.158;2023-06-26T04:07:34;13.38;;;4.75;;
65328;SDS011;51941;52.210;5.158;2023-06-26T04:10:01;13.00;;;4.45;;
65328;SDS011;51941;52.210;5.158;2023-06-26T04:12:28;11.95;;;4.25;;
65328;SDS011;51941;52.210;5.158;2023-06-26T04:14:55;10.57;;;3.95;;
65328;SDS011;51941;52.210;5.158;2023-06-26T04:17:24;15.10;;;4.93;;
65328;SDS011;51941;52.210;5.158;2023-06-26T04:19:51;12.98;;;4.13;;
65328;SDS011;51941;52.210;5.158;2023-06-26T04:22:17;11.60;;;4.32;;
65328;SDS011;51941;52.210;5.158;2023-06-26T04:24:45;8.68;;;3.80;;
65328;SDS011;51941;52.210;5.158;2023-06-26T04:27:12;10.00;;;4.25;;
65328;SDS011;51941;52.210;5.158;2023-06-26T04:29:40;14.70;;;4.47;;
65328;SDS011;51941;52.210;5.158;2023-06-26T04:32:06;10.07;;;3.90;;
65328;SDS011;51941;52.210;5.158;2023-06-26T04:34:34;9.38;;;3.47;;
65328;SDS011;51941;52.210;5.158;2023-06-26T04:37:06;9.60;;;3.80;;
65328;SDS011;51941;52.210;5.158;2023-06-26T04:39:34;10.95;;;4.20;;
65328;SDS011;51941;52.210;5.158;2023-06-26T04:42:03;8.90;;;3.95;;
65328;SDS011;51941;52.210;5.158;2023-06-26T04:44:31;10.10;;;3.47;;
65328;SDS011;51941;52.210;5.158;2023-06-26T04:46:58;7.35;;;3.40;;
65328;SDS011;51941;52.210;5.158;2023-06-26T04:49:24;8.40;;;3.42;;
65328;SDS011;51941;52.210;5.158;2023-06-26T04:51:54;6.82;;;3.47;;
65328;SDS011;51941;52.210;5.158;2023-06-26T04:54:21;5.32;;;3.20;;
65328;SDS011;51941;52.210;5.158;2023-06-26T04:56:48;5.43;;;2.83;;
65328;SDS011;51941;52.210;5.158;2023-06-26T04:59:15;8.18;;;3.28;;
65328;SDS011;51941;52.210;5.158;2023-06-26T05:01:41;4.68;;;2.58;;
65328;SDS011;51941;52.210;5.158;2023-06-26T05:04:13;7.97;;;2.78;;
65328;SDS011;51941;52.210;5.158;2023-06-26T05:06:39;5.25;;;2.70;;
65328;SDS011;51941;52.210;5.158;2023-06-26T05:09:11;7.57;;;2.60;;
65328;SDS011;51941;52.210;5.158;2023-06-26T05:11:39;7.47;;;2.78;;
65328;SDS011;51941;52.210;5.158;2023-06-26T05:14:05;7.45;;;2.30;;
65328;SDS011;51941;52.210;5.158;2023-06-26T05:16:34;6.38;;;2.78;;
65328;SDS011;51941;52.210;5.158;2023-06-26T05:19:01;4.32;;;2.17;;
65328;SDS011;51941;52.210;5.158;2023-06-26T05:21:31;6.57;;;2.40;;
65328;SDS011;51941;52.210;5.158;2023-06-26T05:24:00;2.50;;;1.95;;
65328;SDS011;51941;52.210;5.158;2023-06-26T05:28:57;3.67;;;2.20;;
65328;SDS011;51941;52.210;5.158;2023-06-26T05:31:24;5.53;;;2.08;;
65328;SDS011;51941;52.210;5.158;2023-06-26T05:33:51;4.05;;;2.10;;
65328;SDS011;51941;52.210;5.158;2023-06-26T05:36:22;4.07;;;2.08;;
65328;SDS011;51941;52.210;5.158;2023-06-26T05:38:50;5.63;;;2.40;;
65328;SDS011;51941;52.210;5.158;2023-06-26T05:41:17;3.97;;;1.88;;
65328;SDS011;51941;52.210;5.158;2023-06-26T05:43:46;3.08;;;2.05;;
65328;SDS011;51941;52.210;5.158;2023-06-26T05:46:12;3.58;;;2.05;;
65328;SDS011;51941;52.210;5.158;2023-06-26T05:48:39;4.68;;;2.13;;
65328;SDS011;51941;52.210;5.158;2023-06-26T05:51:07;4.05;;;2.00;;
65328;SDS011;51941;52.210;5.158;2023-06-26T05:53:34;4.93;;;2.10;;
65328;SDS011;51941;52.210;5.158;2023-06-26T05:56:01;4.25;;;2.10;;
65328;SDS011;51941;52.210;5.158;2023-06-26T05:58:28;3.45;;;2.00;;
65328;SDS011;51941;52.210;5.158;2023-06-26T06:00:57;3.72;;;1.83;;
65328;SDS011;51941;52.210;5.158;2023-06-26T06:03:24;5.67;;;2.00;;
65328;SDS011;51941;52.210;5.158;2023-06-26T06:05:51;5.22;;;2.00;;
65328;SDS011;51941;52.210;5.158;2023-06-26T06:08:18;4.45;;;2.13;;
65328;SDS011;51941;52.210;5.158;2023-06-26T06:10:45;6.78;;;1.75;;
65328;SDS011;51941;52.210;5.158;2023-06-26T06:13:11;4.65;;;1.92;;
65328;SDS011;51941;52.210;5.158;2023-06-26T06:15:38;3.58;;;1.83;;
65328;SDS011;51941;52.210;5.158;2023-06-26T06:18:06;3.03;;;1.60;;
65328;SDS011;51941;52.210;5.158;2023-06-26T06:20:33;2.78;;;1.60;;
65328;SDS011;51941;52.210;5.158;2023-06-26T06:23:01;4.05;;;1.80;;
65328;SDS011;51941;52.210;5.158;2023-06-26T06:25:28;3.17;;;1.60;;
65328;SDS011;51941;52.210;5.158;2023-06-26T06:27:56;5.50;;;1.75;;
65328;SDS011;51941;52.210;5.158;2023-06-26T06:30:23;3.75;;;1.95;;
65328;SDS011;51941;52.210;5.158;2023-06-26T06:32:50;8.10;;;2.25;;
65328;SDS011;51941;52.210;5.158;2023-06-26T06:35:19;4.18;;;2.00;;
65328;SDS011;51941;52.210;5.158;2023-06-26T06:37:46;4.38;;;2.08;;
65328;SDS011;51941;52.210;5.158;2023-06-26T06:40:14;4.35;;;2.10;;
65328;SDS011;51941;52.210;5.158;2023-06-26T06:42:40;4.78;;;2.70;;
65328;SDS011;51941;52.210;5.158;2023-06-26T06:45:07;4.97;;;2.10;;
65328;SDS011;51941;52.210;5.158;2023-06-26T06:47:35;7.00;;;2.35;;
65328;SDS011;51941;52.210;5.158;2023-06-26T06:50:02;3.35;;;2.20;;
65328;SDS011;51941;52.210;5.158;2023-06-26T06:52:35;6.30;;;2.40;;
65328;SDS011;51941;52.210;5.158;2023-06-26T06:55:03;3.65;;;2.40;;
65328;SDS011;51941;52.210;5.158;2023-06-26T06:57:33;3.97;;;2.00;;
65328;SDS011;51941;52.210;5.158;2023-06-26T07:00:02;6.10;;;2.80;;
65328;SDS011;51941;52.210;5.158;2023-06-26T07:02:30;6.93;;;2.50;;
65328;SDS011;51941;52.210;5.158;2023-06-26T07:04:57;5.55;;;2.85;;
65328;SDS011;51941;52.210;5.158;2023-06-26T07:07:27;5.55;;;2.45;;
65328;SDS011;51941;52.210;5.158;2023-06-26T07:09:58;4.50;;;2.50;;
65328;SDS011;51941;52.210;5.158;2023-06-26T07:12:25;3.85;;;1.77;;
65328;SDS011;51941;52.210;5.158;2023-06-26T07:14:51;6.65;;;2.20;;
65328;SDS011;51941;52.210;5.158;2023-06-26T07:17:19;6.18;;;1.95;;
65328;SDS011;51941;52.210;5.158;2023-06-26T07:19:46;6.95;;;2.03;;
65328;SDS011;51941;52.210;5.158;2023-06-26T07:22:12;4.10;;;1.75;;
65328;SDS011;51941;52.210;5.158;2023-06-26T07:24:39;6.75;;;2.00;;
65328;SDS011;51941;52.210;5.158;2023-06-26T07:27:07;5.30;;;2.08;;
65328;SDS011;51941;52.210;5.158;2023-06-26T07:29:34;5.65;;;2.05;;
65328;SDS011;51941;52.210;5.158;2023-06-26T07:32:01;6.13;;;2.20;;
65328;SDS011;51941;52.210;5.158;2023-06-26T07:34:27;3.47;;;1.70;;
65328;SDS011;51941;52.210;5.158;2023-06-26T07:36:54;6.07;;;2.13;;
65328;SDS011;51941;52.210;5.158;2023-06-26T07:39:21;3.13;;;1.60;;
65328;SDS011;51941;52.210;5.158;2023-06-26T07:41:47;4.93;;;2.03;;
65328;SDS011;51941;52.210;5.158;2023-06-26T07:44:15;7.63;;;1.83;;
65328;SDS011;51941;52.210;5.158;2023-06-26T07:46:42;5.57;;;1.90;;
65328;SDS011;51941;52.210;5.158;2023-06-26T07:49:10;2.90;;;1.50;;
65328;SDS011;51941;52.210;5.158;2023-06-26T07:51:36;3.33;;;1.50;;
65328;SDS011;51941;52.210;5.158;2023-06-26T07:54:03;6.20;;;1.70;;
65328;SDS011;51941;52.210;5.158;2023-06-26T07:56:30;7.68;;;2.30;;
65328;SDS011;51941;52.210;5.158;2023-06-26T07:58:57;3.25;;;1.65;;
65328;SDS011;51941;52.210;5.158;2023-06-26T08:01:27;5.63;;;1.75;;
65328;SDS011;51941;52.210;5.158;2023-06-26T08:03:53;3.35;;;1.45;;
65328;SDS011;51941;52.210;5.158;2023-06-26T08:06:20;4.00;;;1.67;;
65328;SDS011;51941;52.210;5.158;2023-06-26T08:08:47;4.18;;;1.75;;
65328;SDS011;51941;52.210;5.158;2023-06-26T08:11:13;4.68;;;1.80;;
65328;SDS011;51941;52.210;5.158;2023-06-26T08:13:40;5.43;;;1.50;;
65328;SDS011;51941;52.210;5.158;2023-06-26T08:16:07;5.15;;;1.63;;
65328;SDS011;51941;52.210;5.158;2023-06-26T08:18:35;4.30;;;1.48;;
65328;SDS011;51941;52.210;5.158;2023-06-26T08:21:02;3.28;;;1.17;;
65328;SDS011;51941;52.210;5.158;2023-06-26T08:23:28;7.10;;;1.70;;
65328;SDS011;51941;52.210;5.158;2023-06-26T08:25:59;5.80;;;1.67;;
65328;SDS011;51941;52.210;5.158;2023-06-26T08:28:26;6.43;;;1.65;;
65328;SDS011;51941;52.210;5.158;2023-06-26T08:30:53;5.10;;;1.45;;
65328;SDS011;51941;52.210;5.158;2023-06-26T08:33:20;5.53;;;1.55;;
65328;SDS011;51941;52.210;5.158;2023-06-26T08:35:48;4.05;;;1.55;;
65328;SDS011;51941;52.210;5.158;2023-06-26T08:38:16;5.45;;;1.52;;
65328;SDS011;51941;52.210;5.158;2023-06-26T08:40:43;6.32;;;1.58;;
65328;SDS011;51941;52.210;5.158;2023-06-26T08:43:10;5.45;;;1.67;;
65328;SDS011;51941;52.210;5.158;2023-06-26T08:45:37;6.97;;;1.70;;
65328;SDS011;51941;52.210;5.158;2023-06-26T08:48:03;6.13;;;1.45;;
65328;SDS011;51941;52.210;5.158;2023-06-26T08:50:34;5.05;;;1.98;;
65328;SDS011;51941;52.210;5.158;2023-06-26T08:53:07;7.05;;;1.73;;
65328;SDS011;51941;52.210;5.158;2023-06-26T08:55:41;4.72;;;1.77;;
65328;SDS011;51941;52.210;5.158;2023-06-26T08:58:09;4.35;;;1.67;;
65328;SDS011;51941;52.210;5.158;2023-06-26T09:00:37;6.40;;;1.88;;
65328;SDS011;51941;52.210;5.158;2023-06-26T09:03:04;4.25;;;1.55;;
65328;SDS011;51941;52.210;5.158;2023-06-26T09:05:32;4.72;;;1.55;;
65328;SDS011;51941;52.210;5.158;2023-06-26T09:07:59;8.77;;;1.60;;
65328;SDS011;51941;52.210;5.158;2023-06-26T09:10:27;5.15;;;1.70;;
65328;SDS011;51941;52.210;5.158;2023-06-26T09:12:55;6.47;;;1.70;;
65328;SDS011;51941;52.210;5.158;2023-06-26T09:15:22;6.05;;;1.65;;
65328;SDS011;51941;52.210;5.158;2023-06-26T09:17:49;7.03;;;1.70;;
65328;SDS011;51941;52.210;5.158;2023-06-26T09:20:16;4.10;;;1.42;;
65328;SDS011;51941;52.210;5.158;2023-06-26T09:22:43;4.45;;;1.70;;
65328;SDS011;51941;52.210;5.158;2023-06-26T09:25:14;4.38;;;1.35;;
65328;SDS011;51941;52.210;5.158;2023-06-26T09:27:42;6.43;;;1.70;;
65328;SDS011;51941;52.210;5.158;2023-06-26T09:30:10;3.15;;;1.45;;
65328;SDS011;51941;52.210;5.158;2023-06-26T09:32:37;6.45;;;1.50;;
65328;SDS011;51941;52.210;5.158;2023-06-26T09:35:04;2.95;;;1.35;;
65328;SDS011;51941;52.210;5.158;2023-06-26T09:37:31;8.80;;;1.40;;
65328;SDS011;51941;52.210;5.158;2023-06-26T09:39:59;3.72;;;1.25;;
65328;SDS011;51941;52.210;5.158;2023-06-26T09:42:26;5.97;;;1.48;;
65328;SDS011;51941;52.210;5.158;2023-06-26T09:44:54;8.63;;;1.58;;
65328;SDS011;51941;52.210;5.158;2023-06-26T09:47:21;2.40;;;1.30;;
65328;SDS011;51941;52.210;5.158;2023-06-26T09:49:48;5.57;;;1.60;;
65328;SDS011;51941;52.210;5.158;2023-06-26T09:52:17;6.28;;;1.27;;
65328;SDS011;51941;52.210;5.158;2023-06-26T09:54:45;11.43;;;1.40;;
65328;SDS011;51941;52.210;5.158;2023-06-26T09:57:12;3.88;;;1.52;;
65328;SDS011;51941;52.210;5.158;2023-06-26T09:59:44;4.75;;;1.02;;
65328;SDS011;51941;52.210;5.158;2023-06-26T10:02:12;4.15;;;1.23;;
65328;SDS011;51941;52.210;5.158;2023-06-26T10:04:39;6.88;;;1.35;;
65328;SDS011;51941;52.210;5.158;2023-06-26T10:07:07;3.20;;;1.30;;
65328;SDS011;51941;52.210;5.158;2023-06-26T10:09:37;2.45;;;1.10;;
65328;SDS011;51941;52.210;5.158;2023-06-26T10:12:09;3.78;;;1.00;;
65328;SDS011;51941;52.210;5.158;2023-06-26T10:14:41;3.03;;;0.90;;
65328;SDS011;51941;52.210;5.158;2023-06-26T10:17:08;4.13;;;1.15;;
65328;SDS011;51941;52.210;5.158;2023-06-26T10:19:41;3.50;;;1.17;;
65328;SDS011;51941;52.210;5.158;2023-06-26T10:22:11;6.47;;;1.20;;
65328;SDS011;51941;52.210;5.158;2023-06-26T10:24:41;5.65;;;1.30;;
65328;SDS011;51941;52.210;5.158;2023-06-26T10:27:14;2.60;;;1.25;;
65328;SDS011;51941;52.210;5.158;2023-06-26T10:29:43;3.13;;;1.10;;
65328;SDS011;51941;52.210;5.158;2023-06-26T10:34:44;2.03;;;1.00;;
65328;SDS011;51941;52.210;5.158;2023-06-26T10:37:11;6.95;;;1.30;;
65328;SDS011;51941;52.210;5.158;2023-06-26T10:39:48;5.82;;;1.23;;
65328;SDS011;51941;52.210;5.158;2023-06-26T10:42:16;4.15;;;1.40;;
65328;SDS011;51941;52.210;5.158;2023-06-26T10:44:44;4.10;;;1.00;;
65328;SDS011;51941;52.210;5.158;2023-06-26T10:47:12;3.03;;;1.00;;
65328;SDS011;51941;52.210;5.158;2023-06-26T10:53:11;8.25;;;1.38;;
65328;SDS011;51941;52.210;5.158;2023-06-26T10:55:51;10.88;;;1.50;;
65328;SDS011;51941;52.210;5.158;2023-06-26T11:04:04;2.20;;;0.90;;
65328;SDS011;51941;52.210;5.158;2023-06-26T11:06:32;3.45;;;1.05;;
65328;SDS011;51941;52.210;5.158;2023-06-26T11:09:05;8.10;;;1.10;;
65328;SDS011;51941;52.210;5.158;2023-06-26T11:14:24;4.50;;;0.85;;
65328;SDS011;51941;52.210;5.158;2023-06-26T11:16:52;8.13;;;1.63;;
65328;SDS011;51941;52.210;5.158;2023-06-26T11:19:21;2.38;;;0.80;;
65328;SDS011;51941;52.210;5.158;2023-06-26T11:21:48;2.90;;;1.05;;
65328;SDS011;51941;52.210;5.158;2023-06-26T11:24:18;4.77;;;1.13;;
65328;SDS011;51941;52.210;5.158;2023-06-26T11:26:46;2.42;;;0.77;;
65328;SDS011;51941;52.210;5.158;2023-06-26T11:29:12;4.45;;;1.15;;
65328;SDS011;51941;52.210;5.158;2023-06-26T11:31:40;5.68;;;0.93;;
65328;SDS011;51941;52.210;5.158;2023-06-26T11:34:08;5.18;;;1.02;;
65328;SDS011;51941;52.210;5.158;2023-06-26T11:36:37;4.20;;;0.93;;
65328;SDS011;51941;52.210;5.158;2023-06-26T11:39:04;6.57;;;0.93;;
65328;SDS011;51941;52.210;5.158;2023-06-26T11:41:34;5.22;;;1.00;;
65328;SDS011;51941;52.210;5.158;2023-06-26T11:44:01;2.20;;;0.88;;
65328;SDS011;51941;52.210;5.158;2023-06-26T11:46:29;8.05;;;1.40;;
65328;SDS011;51941;52.210;5.158;2023-06-26T11:48:56;3.88;;;0.82;;
65328;SDS011;51941;52.210;5.158;2023-06-26T11:51:23;5.10;;;1.25;;
65328;SDS011;51941;52.210;5.158;2023-06-26T11:56:19;4.57;;;0.90;;
65328;SDS011;51941;52.210;5.158;2023-06-26T11:58:58;3.70;;;0.82;;
65328;SDS011;51941;52.210;5.158;2023-06-26T12:01:32;2.78;;;0.90;;
65328;SDS011;51941;52.210;5.158;2023-06-26T12:04:01;4.05;;;0.82;;
65328;SDS011;51941;52.210;5.158;2023-06-26T12:06:29;2.73;;;0.90;;
65328;SDS011;51941;52.210;5.158;2023-06-26T12:08:58;2.55;;;0.90;;
65328;SDS011;51941;52.210;5.158;2023-06-26T12:11:28;1.70;;;0.80;;
65328;SDS011;51941;52.210;5.158;2023-06-26T12:13:58;3.60;;;0.93;;
65328;SDS011;51941;52.210;5.158;2023-06-26T12:16:25;3.25;;;0.90;;
65328;SDS011;51941;52.210;5.158;2023-06-26T12:18:57;6.80;;;0.95;;
65328;SDS011;51941;52.210;5.158;2023-06-26T12:21:28;4.07;;;0.90;;
65328;SDS011;51941;52.210;5.158;2023-06-26T12:24:00;3.47;;;0.95;;
65328;SDS011;51941;52.210;5.158;2023-06-26T12:26:27;1.77;;;0.88;;
65328;SDS011;51941;52.210;5.158;2023-06-26T12:29:02;2.25;;;0.80;;
65328;SDS011;51941;52.210;5.158;2023-06-26T12:31:29;7.93;;;1.60;;
65328;SDS011;51941;52.210;5.158;2023-06-26T12:33:57;5.15;;;0.98;;
65328;SDS011;51941;52.210;5.158;2023-06-26T12:36:24;2.60;;;0.80;;
65328;SDS011;51941;52.210;5.158;2023-06-26T12:38:52;8.20;;;1.25;;
65328;SDS011;51941;52.210;5.158;2023-06-26T12:41:19;2.92;;;0.70;;
65328;SDS011;51941;52.210;5.158;2023-06-26T12:43:46;2.95;;;1.05;;
65328;SDS011;51941;52.210;5.158;2023-06-26T12:46:14;4.07;;;0.93;;
65328;SDS011;51941;52.210;5.158;2023-06-26T12:48:41;3.22;;;0.90;;
65328;SDS011;51941;52.210;5.158;2023-06-26T12:51:11;2.20;;;0.93;;
65328;SDS011;51941;52.210;5.158;2023-06-26T12:53:38;5.40;;;1.02;;
65328;SDS011;51941;52.210;5.158;2023-06-26T12:56:05;4.63;;;1.00;;
65328;SDS011;51941;52.210;5.158;2023-06-26T12:58:33;2.45;;;1.23;;
65328;SDS011;51941;52.210;5.158;2023-06-26T13:00:59;3.88;;;0.95;;
65328;SDS011;51941;52.210;5.158;2023-06-26T13:03:29;2.03;;;0.93;;
65328;SDS011;51941;52.210;5.158;2023-06-26T13:05:56;3.37;;;0.93;;
65328;SDS011;51941;52.210;5.158;2023-06-26T13:08:23;5.00;;;0.90;;
65328;SDS011;51941;52.210;5.158;2023-06-26T13:10:50;3.50;;;0.90;;
65328;SDS011;51941;52.210;5.158;2023-06-26T13:13:17;3.03;;;0.80;;
65328;SDS011;51941;52.210;5.158;2023-06-26T13:15:43;3.20;;;0.82;;
65328;SDS011;51941;52.210;5.158;2023-06-26T13:18:10;4.03;;;1.02;;
65328;SDS011;51941;52.210;5.158;2023-06-26T13:20:42;3.75;;;1.05;;
65328;SDS011;51941;52.210;5.158;2023-06-26T13:23:09;4.43;;;1.10;;
65328;SDS011;51941;52.210;5.158;2023-06-26T13:25:35;8.55;;;1.40;;
65328;SDS011;51941;52.210;5.158;2023-06-26T13:28:02;2.47;;;0.95;;
65328;SDS011;51941;52.210;5.158;2023-06-26T13:30:29;3.25;;;0.73;;
65328;SDS011;51941;52.210;5.158;2023-06-26T13:32:56;5.72;;;0.70;;
65328;SDS011;51941;52.210;5.158;2023-06-26T13:35:22;2.30;;;0.90;;
65328;SDS011;51941;52.210;5.158;2023-06-26T13:37:51;5.18;;;1.00;;
65328;SDS011;51941;52.210;5.158;2023-06-26T13:40:17;2.25;;;0.80;;
65328;SDS011;51941;52.210;5.158;2023-06-26T13:42:44;3.00;;;1.02;;
65328;SDS011;51941;52.210;5.158;2023-06-26T13:45:11;3.35;;;0.90;;
65328;SDS011;51941;52.210;5.158;2023-06-26T13:47:38;2.38;;;1.17;;
65328;SDS011;51941;52.210;5.158;2023-06-26T13:50:07;1.95;;;0.77;;
65328;SDS011;51941;52.210;5.158;2023-06-26T13:52:34;4.95;;;1.00;;
65328;SDS011;51941;52.210;5.158;2023-06-26T13:55:02;3.10;;;0.73;;
65328;SDS011;51941;52.210;5.158;2023-06-26T13:59:57;3.25;;;1.38;;
65328;SDS011;51941;52.210;5.158;2023-06-26T14:02:23;3.47;;;1.20;;
65328;SDS011;51941;52.210;5.158;2023-06-26T14:04:51;3.58;;;0.90;;
65328;SDS011;51941;52.210;5.158;2023-06-26T14:07:18;2.47;;;0.80;;
65328;SDS011;51941;52.210;5.158;2023-06-26T14:09:45;2.50;;;0.90;;
65328;SDS011;51941;52.210;5.158;2023-06-26T14:12:13;3.88;;;0.88;;
65328;SDS011;51941;52.210;5.158;2023-06-26T14:14:40;3.30;;;1.20;;
65328;SDS011;51941;52.210;5.158;2023-06-26T14:17:07;1.98;;;0.73;;
65328;SDS011;51941;52.210;5.158;2023-06-26T14:19:41;2.92;;;0.88;;
65328;SDS011;51941;52.210;5.158;2023-06-26T14:22:08;2.85;;;1.00;;
65328;SDS011;51941;52.210;5.158;2023-06-26T14:24:34;1.60;;;0.80;;
65328;SDS011;51941;52.210;5.158;2023-06-26T14:27:01;1.40;;;0.80;;
65328;SDS011;51941;52.210;5.158;2023-06-26T14:29:30;2.08;;;0.93;;
65328;SDS011;51941;52.210;5.158;2023-06-26T14:31:56;3.10;;;0.82;;
65328;SDS011;51941;52.210;5.158;2023-06-26T14:34:23;3.20;;;0.80;;
65328;SDS011;51941;52.210;5.158;2023-06-26T14:36:50;3.72;;;0.90;;
65328;SDS011;51941;52.210;5.158;2023-06-26T14:39:17;2.05;;;0.80;;
65328;SDS011;51941;52.210;5.158;2023-06-26T14:41:43;5.13;;;0.88;;
65328;SDS011;51941;52.210;5.158;2023-06-26T14:44:10;2.13;;;0.93;;
65328;SDS011;51941;52.210;5.158;2023-06-26T14:46:38;5.22;;;0.90;;
65328;SDS011;51941;52.210;5.158;2023-06-26T14:49:05;4.75;;;0.98;;
65328;SDS011;51941;52.210;5.158;2023-06-26T14:51:32;2.38;;;0.75;;
65328;SDS011;51941;52.210;5.158;2023-06-26T14:53:59;4.50;;;1.20;;
65328;SDS011;51941;52.210;5.158;2023-06-26T14:56:25;1.95;;;0.95;;
65328;SDS011;51941;52.210;5.158;2023-06-26T14:58:52;2.63;;;0.90;;
65328;SDS011;51941;52.210;5.158;2023-06-26T15:01:19;3.92;;;0.85;;
65328;SDS011;51941;52.210;5.158;2023-06-26T15:03:47;5.30;;;1.02;;
65328;SDS011;51941;52.210;5.158;2023-06-26T15:06:14;2.42;;;0.75;;
65328;SDS011;51941;52.210;5.158;2023-06-26T15:08:41;4.88;;;1.20;;
65328;SDS011;51941;52.210;5.158;2023-06-26T15:11:08;2.88;;;1.13;;
65328;SDS011;51941;52.210;5.158;2023-06-26T15:13:34;4.63;;;1.00;;
65328;SDS011;51941;52.210;5.158;2023-06-26T15:16:01;5.38;;;1.00;;
65328;SDS011;51941;52.210;5.158;2023-06-26T15:18:28;4.43;;;0.90;;